Terminal Aerodrome Forecast
Issued by NWS Houston/Galveston TX

Home | Current Version | Previous Version | Text Only | Print | Product List | Glossary On
Versions: 1 2 3 4 5 6 7 8 9 10 11 12 13 14 15 16 17 18 19 20 21 22 23 24 25 26 27 28 29
000
FTUS44 KHGX 111005 AAC
TAFHOU
TAF AMD
KHOU 111005Z 1110/1206 14007KT P6SM FEW028 BKN060 OVC080
      TEMPO 1111/1115 SCT015 BKN025
     FM111500 17010KT P6SM BKN012
     FM111800 18013G23KT P6SM BKN025
     FM120200 18009KT 5SM BR BKN012=

USA.gov is the U.S. government's official web portal to all federal, state and local government web resources and services.